Impacts METAR Board INFO
IDs:

KTPA - Tampa Intl Arpt, FL, US

Updated at: 1327 UTC 18 Jan 2018
Potential Impact None Slight Moderate High
Time18/01Z 18/02Z 18/03Z 18/04Z 18/05Z 18/06Z 18/07Z 18/08Z 18/09Z 18/10Z 18/11Z 18/12Z 18/13Z
VIS10 10 10 10 10 10 10 10 10 10 10 10 10
CIG-- -- -- -- -- -- -- -- -- -- -- -- --
CoverCLRCLRCLRCLRCLRCLRCLRCLRCLRCLRCLRFEWFEW
FltCatVFRVFRVFRVFRVFRVFRVFRVFRVFRVFRVFRVFRVFR
WX--------------------------
WDir32033031035036036010360360360102010
WSpd7 8 9 10 8 9 9 13 7 10 11 11 8
WGst17 -- -- -- -- -- -- -- -- -- -- 18 --
Raw hourly METARs
KTPA 180053Z 32007G17KT 280V350 10SM CLR 08/02 A3032 RMK AO2 SLP268 T00830022
KTPA 180153Z 33008KT 280V350 10SM CLR 08/00 A3033 RMK AO2 SLP272 T00780000
KTPA 180253Z 31009KT 10SM CLR 08/M01 A3035 RMK AO2 SLP278 T00781006 53013
KTPA 180353Z 35010KT 10SM CLR 06/M01 A3036 RMK AO2 SLP281 T00611006
KTPA 180453Z 36008KT 10SM CLR 06/M03 A3037 RMK AO2 SLP283 T00561033 402060056
KTPA 180553Z 36009KT 10SM CLR 04/M06 A3036 RMK AO2 SLP281 T00391061 10083 20039 50003
KTPA 180653Z 01009KT 10SM CLR 02/M07 A3037 RMK AO2 SLP283 T00221067
KTPA 180753Z 36013KT 10SM CLR 01/M09 A3036 RMK AO2 SLP281 T00111089
KTPA 180853Z 36007KT 10SM CLR 00/M09 A3038 RMK AO2 SLP286 T00001089 53005
KTPA 180953Z 36010KT 10SM CLR M01/M11 A3037 RMK AO2 SLP285 T10111106
KTPA 181053Z 01011KT 10SM CLR M02/M11 A3038 RMK AO2 SLP288 T10171106
KTPA 181153Z 02011G18KT 10SM FEW230 M02/M11 A3040 RMK AO2 SLP293 T10171111 10039 21017 53007
KTPA 181253Z COR 01008KT 10SM FEW250 M02/M11 A3041 RMK AO2 SLP299 T10171106